Weather reports worldwide

Advertisment
Bealach, United Kingdom (3039): temperature & dewpoint: 10.06.2019 12:00:00 - 16.06.2019 12:00:00 (BST)Bealach, United Kingdom (3039): wind speed & gusts: 10.06.2019 12:00:00 - 16.06.2019 12:00:00 (BST)Bealach, United Kingdom (3039): wind direction: 10.06.2019 12:00:00 - 16.06.2019 12:00:00 (BST)
Date & Time tt [°C] td [°C] ff [km/h] ff [kn] fx [km/h] fx [kn] dd
16.06.2019 12:00:00 4,9 3,8 39 21 48 26 SSW
16.06.2019 11:00:00 4,8 4,4 41 22 55 30 SSW
16.06.2019 10:00:00 5,3 4,6 41 22 68 37 SSW
16.06.2019 09:00:00 5,0 5,0 42 23 76 41 SSW
16.06.2019 08:00:00 4,6 4,4 37 20 65 35 SSW
16.06.2019 07:00:00 4,6 4,6 37 20 74 40 S
16.06.2019 06:00:00 4,9 4,9 37 20 67 36 S
16.06.2019 05:00:00 5,4 5,3 35 19 48 26 SSE
16.06.2019 04:00:00 6,5 6,4 15 8 - - SSE
16.06.2019 03:00:00 7,2 6,3 9 5 - - SE
16.06.2019 02:00:00 7,5 6,4 15 8 - - E
16.06.2019 01:00:00 7,6 6,6 11 6 - - ESE
16.06.2019 00:00:00 7,6 6,9 15 8 - - ESE
15.06.2019 23:00:00 7,6 7,2 16 9 - - E
15.06.2019 22:00:00 8,2 6,6 8 4 - - E
15.06.2019 21:00:00 8,6 2,1 11 6 - - E
15.06.2019 20:00:00 8,1 4,4 11 6 - - ESE
15.06.2019 19:00:00 9,0 5,6 9 5 - - ESE
15.06.2019 18:00:00 8,9 3,5 13 7 - - ESE
15.06.2019 17:00:00 9,1 0,0 4 2 - - E
15.06.2019 16:00:00 7,9 3,7 4 2 - - SE
15.06.2019 15:00:00 8,1 4,0 4 2 - - SE
15.06.2019 14:00:00 7,8 3,9 4 2 - - SE
15.06.2019 13:00:00 7,7 5,8 5 3 - - NNW
15.06.2019 12:00:00 7,8 4,5 13 7 46 25 E
15.06.2019 11:00:00 7,9 3,9 28 15 59 32 E
15.06.2019 10:00:00 7,8 3,8 35 19 63 34 E
15.06.2019 09:00:00 7,2 4,2 41 22 65 35 E
15.06.2019 08:00:00 6,9 4,5 46 25 72 39 E
15.06.2019 07:00:00 6,4 4,7 46 25 80 43 E
15.06.2019 06:00:00 6,1 4,6 54 29 74 40 ESE
15.06.2019 05:00:00 5,9 4,8 42 23 65 35 ESE
15.06.2019 04:00:00 5,4 4,4 28 15 46 25 ESE
15.06.2019 03:00:00 5,6 4,2 18 10 - - ESE
15.06.2019 02:00:00 5,6 4,1 34 18 55 30 E
15.06.2019 01:00:00 6,1 3,1 29 16 - - ESE
15.06.2019 00:00:00 5,8 3,5 16 9 - - E
14.06.2019 23:00:00 5,8 3,4 13 7 - - SE
14.06.2019 22:00:00 5,8 2,8 18 10 - - SSE
14.06.2019 21:00:00 5,8 2,6 24 13 - - S
14.06.2019 20:00:00 5,5 3,2 37 20 46 25 S
14.06.2019 19:00:00 5,2 4,3 31 17 57 31 SSE
14.06.2019 18:00:00 4,7 3,6 28 15 54 29 S
14.06.2019 17:00:00 4,0 3,1 37 20 76 41 SSE
14.06.2019 16:00:00 4,2 2,7 26 14 67 36 S
14.06.2019 15:00:00 4,7 2,7 31 17 59 32 S
14.06.2019 14:00:00 4,7 2,5 37 20 55 30 SSE
14.06.2019 13:00:00 4,7 1,6 34 18 61 33 SSE
14.06.2019 12:00:00 4,0 3,6 28 15 52 28 S
14.06.2019 11:00:00 4,2 3,4 22 12 52 28 SSE
14.06.2019 10:00:00 4,1 4,1 28 15 48 26 S
14.06.2019 09:00:00 3,9 3,8 18 10 - - S
14.06.2019 08:00:00 3,7 3,6 28 15 - - SSW
14.06.2019 07:00:00 3,7 3,7 22 12 - - S
14.06.2019 06:00:00 3,3 3,3 15 8 - - SW
14.06.2019 05:00:00 3,2 3,2 11 6 - - W
14.06.2019 04:00:00 3,5 3,5 13 7 - - WNW
14.06.2019 03:00:00 3,6 3,6 16 9 - - NNW
14.06.2019 02:00:00 3,7 3,7 16 9 - - NNW
14.06.2019 01:00:00 3,7 3,7 15 8 - - N
14.06.2019 00:00:00 3,9 3,9 15 8 - - NNE
13.06.2019 23:00:00 4,0 4,0 18 10 - - NNE
13.06.2019 22:00:00 4,0 4,0 24 13 - - NNE
13.06.2019 21:00:00 4,2 4,2 13 7 - - N
13.06.2019 20:00:00 3,5 3,4 16 9 - - NNW
13.06.2019 19:00:00 3,1 3,1 26 14 - - N
13.06.2019 18:00:00 2,9 2,6 21 11 - - N
13.06.2019 17:00:00 3,1 2,7 22 12 - - N
13.06.2019 16:00:00 3,1 2,5 26 14 - - N
13.06.2019 15:00:00 2,6 2,0 22 12 - - N
13.06.2019 14:00:00 2,5 1,7 15 8 - - N
13.06.2019 13:00:00 2,7 0,1 18 10 - - NNE
13.06.2019 12:00:00 2,3 0,0 13 7 - - NE
13.06.2019 11:00:00 2,2 -0,5 15 8 - - NNE
13.06.2019 10:00:00 2,1 -0,1 18 10 - - N
13.06.2019 09:00:00 1,9 -0,6 11 6 - - NNE
13.06.2019 08:00:00 1,8 0,5 21 11 - - ENE
13.06.2019 07:00:00 1,5 0,7 15 8 - - ENE
13.06.2019 06:00:00 1,6 0,8 24 13 - - NE
13.06.2019 05:00:00 1,4 0,7 18 10 - - NE
13.06.2019 04:00:00 1,7 1,2 18 10 - - NE
13.06.2019 03:00:00 2,3 1,8 18 10 - - NE
13.06.2019 02:00:00 2,5 2,0 24 13 - - NNE
13.06.2019 01:00:00 3,4 2,2 8 4 - - NNE
13.06.2019 00:00:00 3,9 3,0 11 6 48 26 ENE
12.06.2019 23:00:00 4,0 3,5 24 13 - - E
12.06.2019 22:00:00 4,4 3,6 11 6 50 27 NNE
12.06.2019 21:00:00 4,6 3,8 22 12 50 27 ENE
12.06.2019 20:00:00 5,4 4,3 26 14 52 28 ENE
12.06.2019 19:00:00 5,9 3,7 21 11 46 25 ENE
12.06.2019 18:00:00 6,3 3,7 26 14 - - NE
12.06.2019 17:00:00 7,3 1,8 24 13 - - NE
12.06.2019 16:00:00 8,0 1,6 22 12 46 25 ENE
12.06.2019 15:00:00 7,9 1,2 26 14 - - ENE
12.06.2019 14:00:00 7,1 0,7 13 7 - - NNE
12.06.2019 13:00:00 7,3 -0,6 13 7 - - NNE
12.06.2019 12:00:00 6,5 0,3 9 5 - - N
12.06.2019 11:00:00 5,9 0,8 24 13 - - NE
12.06.2019 10:00:00 5,0 -1,2 22 12 48 26 ENE
12.06.2019 09:00:00 4,5 1,5 37 20 50 27 ENE
12.06.2019 08:00:00 4,0 2,6 26 14 - - NE
12.06.2019 07:00:00 4,1 2,5 22 12 55 30 ENE
12.06.2019 06:00:00 4,0 2,8 18 10 55 30 NE
12.06.2019 05:00:00 4,4 2,8 21 11 - - NE
12.06.2019 04:00:00 4,5 2,9 24 13 59 32 NNE
12.06.2019 03:00:00 5,0 3,3 21 11 59 32 ENE
12.06.2019 02:00:00 5,3 3,7 18 10 68 37 NE
12.06.2019 01:00:00 5,5 3,5 22 12 76 41 ENE
12.06.2019 00:00:00 5,4 3,0 22 12 54 29 ENE
11.06.2019 23:00:00 5,1 3,8 24 13 52 28 ENE
11.06.2019 22:00:00 5,5 4,3 26 14 50 27 ENE
11.06.2019 21:00:00 5,2 4,9 24 13 50 27 ENE
11.06.2019 20:00:00 5,1 4,7 26 14 54 29 ENE
11.06.2019 19:00:00 5,1 4,9 29 16 52 28 ENE
11.06.2019 18:00:00 5,0 5,0 29 16 59 32 N
11.06.2019 17:00:00 5,1 4,9 24 13 - - N
11.06.2019 16:00:00 4,5 3,1 26 14 48 26 N
11.06.2019 15:00:00 5,0 2,2 16 9 - - NNE
11.06.2019 14:00:00 4,9 2,7 22 12 - - NNE
11.06.2019 13:00:00 4,3 3,8 26 14 - - N
11.06.2019 12:00:00 4,1 3,0 22 12 - - N
11.06.2019 11:00:00 4,9 0,5 18 10 - - NNE
11.06.2019 10:00:00 4,3 -2,9 18 10 - - NE
11.06.2019 09:00:00 3,4 0,5 16 9 - - NE
11.06.2019 08:00:00 2,9 0,9 28 15 - - NNE
11.06.2019 07:00:00 2,6 1,4 28 15 - - N
11.06.2019 06:00:00 2,8 2,0 26 14 - - N
11.06.2019 05:00:00 3,0 2,9 15 8 - - NNE
11.06.2019 04:00:00 3,2 3,1 18 10 - - NNE
11.06.2019 03:00:00 3,6 2,4 15 8 - - NE
11.06.2019 02:00:00 4,2 1,9 8 4 - - NE
11.06.2019 01:00:00 4,6 1,7 11 6 - - N
11.06.2019 00:00:00 4,8 2,2 9 5 - - NNE
10.06.2019 23:00:00 4,6 2,0 11 6 - - N
10.06.2019 22:00:00 5,0 2,1 21 11 - - N
10.06.2019 21:00:00 5,6 0,7 26 14 - - N
10.06.2019 20:00:00 5,4 2,4 26 14 - - NNW
10.06.2019 19:00:00 6,1 0,8 29 16 46 25 NNW
10.06.2019 18:00:00 6,5 0,6 29 16 - - N
10.06.2019 17:00:00 6,9 1,1 28 15 - - NNW
10.06.2019 16:00:00 6,5 0,6 31 17 - - NNW
10.06.2019 15:00:00 7,0 0,3 18 10 - - N
10.06.2019 14:00:00 6,2 1,1 26 14 - - NNW
10.06.2019 13:00:00 5,3 2,0 22 12 - - N
10.06.2019 12:00:00 5,3 2,1 18 10 - - N

tt = temperature
td = dewpoint
ff = wind speed
fx = gusts
dd = wind direction

Next stations